Atlanta, Georgia
Traffic Map
Current Weather Conditions
Atlanta, Georgia
Few Clouds
Few Clouds
71°
Feels Like: 71°
Wind Chill: 71° Ceiling: Unl
Heat Index: 71° Visibility: 10mi
Dew Point: 63° Wind: 7mph
Humidity: 75% Direction: 50° (NE)
Pressure: 29.99in Gusts: 0mph
Raw Report DataKATL 301352Z 05006KT 10SM FEW015 22/17 A2999 RMK AO2 SLP148 T02170172
Traffic Incident Summary
Active as of:
Severity:
Category:
InformationThere was an issue retrieving the traffic information for this location. Please try a different location or try again shortly.
Advertisements
Track Severe Weather on mobile